TimeCDT,TemperatureF,Dew PointF,Humidity,Sea Level PressureIn,VisibilityMPH,Wind Direction,Wind SpeedMPH,Gust SpeedMPH,PrecipitationIn,Events,Conditions,WindDirDegrees,DateUTC
12:52 AM,60.1,45.0,57,30.15,10.0,Calm,Calm,-,N/A,,Clear,0,2013-09-13 05:52:00
1:52 AM,59.0,45.0,60,30.14,10.0,SSE,4.6,-,N/A,,Clear,160,2013-09-13 06:52:00
2:52 AM,50.0,45.0,83,30.14,10.0,Calm,Calm,-,N/A,,Clear,0,2013-09-13 07:52:00
3:52 AM,53.1,46.0,77,30.11,10.0,Calm,Calm,-,N/A,,Clear,0,2013-09-13 08:52:00
4:52 AM,48.9,45.0,86,30.10,10.0,Calm,Calm,-,N/A,,Clear,0,2013-09-13 09:52:00
5:52 AM,48.9,45.0,86,30.08,10.0,Calm,Calm,-,N/A,,Clear,0,2013-09-13 10:52:00
6:52 AM,48.0,44.1,86,30.06,10.0,Calm,Calm,-,N/A,,Clear,0,2013-09-13 11:52:00
7:52 AM,53.1,46.0,77,30.06,10.0,Calm,Calm,-,N/A,,Clear,0,2013-09-13 12:52:00
8:52 AM,59.0,48.9,69,30.04,10.0,South,4.6,-,N/A,,Clear,170,2013-09-13 13:52:00
9:52 AM,63.0,48.0,58,30.01,10.0,SSE,8.1,-,N/A,,Clear,160,2013-09-13 14:52:00
10:52 AM,68.0,51.1,55,29.99,10.0,South,8.1,-,N/A,,Clear,170,2013-09-13 15:52:00
11:52 AM,73.9,54.0,50,29.96,10.0,SSE,5.8,-,N/A,,Clear,160,2013-09-13 16:52:00
12:52 PM,78.1,54.0,43,29.93,10.0,SSE,8.1,-,N/A,,Clear,160,2013-09-13 17:52:00
1:52 PM,82.9,55.9,39,29.90,10.0,Variable,6.9,-,N/A,,Clear,0,2013-09-13 18:52:00
2:52 PM,84.9,53.1,33,29.87,10.0,South,12.7,-,N/A,,Clear,180,2013-09-13 19:52:00
3:52 PM,84.0,52.0,33,29.85,10.0,SSE,10.4,18.4,N/A,,Clear,160,2013-09-13 20:52:00
4:52 PM,84.0,52.0,33,29.83,10.0,South,11.5,-,N/A,,Clear,170,2013-09-13 21:52:00
5:52 PM,82.9,51.1,33,29.83,10.0,South,8.1,-,N/A,,Clear,170,2013-09-13 22:52:00
6:52 PM,81.0,52.0,36,29.81,10.0,SSE,8.1,-,N/A,,Clear,160,2013-09-13 23:52:00
7:52 PM,77.0,55.0,47,29.79,10.0,SE,6.9,-,N/A,,Clear,130,2013-09-14 00:52:00
8:52 PM,71.1,55.0,57,29.79,10.0,East,4.6,-,N/A,,Clear,100,2013-09-14 01:52:00
9:52 PM,71.1,55.0,57,29.78,10.0,SSE,5.8,-,N/A,,Clear,150,2013-09-14 02:52:00
10:52 PM,69.1,55.0,61,29.78,10.0,SSE,5.8,-,N/A,,Clear,160,2013-09-14 03:52:00
11:52 PM,68.0,54.0,61,29.78,10.0,SSE,3.5,-,N/A,,Clear,150,2013-09-14 04:52:00